sensor_id;sensor_type;location;lat;lon;timestamp;temperature;humidity
22678;DHT22;26259;50.214;18.620;2023-05-02T00:00:08;7.30;99.90
22678;DHT22;26259;50.214;18.620;2023-05-02T00:02:34;7.30;99.90
22678;DHT22;26259;50.214;18.620;2023-05-02T00:05:00;7.30;99.90
22678;DHT22;26259;50.214;18.620;2023-05-02T00:07:26;7.30;99.90
22678;DHT22;26259;50.214;18.620;2023-05-02T00:09:52;7.30;99.90
22678;DHT22;26259;50.214;18.620;2023-05-02T00:12:17;7.30;99.90
22678;DHT22;26259;50.214;18.620;2023-05-02T00:14:43;7.30;99.90
22678;DHT22;26259;50.214;18.620;2023-05-02T00:17:09;7.40;99.90
22678;DHT22;26259;50.214;18.620;2023-05-02T00:19:41;7.40;99.90
22678;DHT22;26259;50.214;18.620;2023-05-02T00:22:07;7.40;99.90
22678;DHT22;26259;50.214;18.620;2023-05-02T00:24:32;7.40;99.90
22678;DHT22;26259;50.214;18.620;2023-05-02T00:26:58;7.40;99.90
22678;DHT22;26259;50.214;18.620;2023-05-02T00:29:23;7.50;99.90
22678;DHT22;26259;50.214;18.620;2023-05-02T00:31:49;7.60;99.90
22678;DHT22;26259;50.214;18.620;2023-05-02T00:34:14;7.50;99.90
22678;DHT22;26259;50.214;18.620;2023-05-02T00:36:40;7.60;99.90
22678;DHT22;26259;50.214;18.620;2023-05-02T00:39:05;7.60;99.90
22678;DHT22;26259;50.214;18.620;2023-05-02T00:41:31;7.70;99.90
22678;DHT22;26259;50.214;18.620;2023-05-02T00:43:57;7.70;99.90
22678;DHT22;26259;50.214;18.620;2023-05-02T00:46:22;7.70;99.90
22678;DHT22;26259;50.214;18.620;2023-05-02T00:48:49;7.70;99.90
22678;DHT22;26259;50.214;18.620;2023-05-02T00:51:14;7.70;99.90
22678;DHT22;26259;50.214;18.620;2023-05-02T00:53:40;7.70;99.90
22678;DHT22;26259;50.214;18.620;2023-05-02T00:56:07;7.70;99.90
22678;DHT22;26259;50.214;18.620;2023-05-02T00:58:33;7.60;99.90
22678;DHT22;26259;50.214;18.620;2023-05-02T01:12:01;7.50;99.90
22678;DHT22;26259;50.214;18.620;2023-05-02T01:14:32;7.50;99.90
22678;DHT22;26259;50.214;18.620;2023-05-02T01:17:02;7.50;99.90
22678;DHT22;26259;50.214;18.620;2023-05-02T01:19:33;7.60;99.90
22678;DHT22;26259;50.214;18.620;2023-05-02T01:22:02;7.60;99.90
22678;DHT22;26259;50.214;18.620;2023-05-02T01:24:34;7.60;99.90
22678;DHT22;26259;50.214;18.620;2023-05-02T01:27:10;7.70;99.90
22678;DHT22;26259;50.214;18.620;2023-05-02T01:29:39;7.70;99.90
22678;DHT22;26259;50.214;18.620;2023-05-02T01:32:07;7.70;99.90
22678;DHT22;26259;50.214;18.620;2023-05-02T01:34:35;7.80;99.90
22678;DHT22;26259;50.214;18.620;2023-05-02T01:37:02;7.80;99.90
22678;DHT22;26259;50.214;18.620;2023-05-02T01:39:31;7.80;99.90
22678;DHT22;26259;50.214;18.620;2023-05-02T01:41:58;7.80;99.90
22678;DHT22;26259;50.214;18.620;2023-05-02T01:44:28;7.90;99.90
22678;DHT22;26259;50.214;18.620;2023-05-02T01:46:54;7.90;99.90
22678;DHT22;26259;50.214;18.620;2023-05-02T01:49:22;7.90;99.90
22678;DHT22;26259;50.214;18.620;2023-05-02T01:51:49;8.00;99.90
22678;DHT22;26259;50.214;18.620;2023-05-02T01:54:17;8.00;99.90
22678;DHT22;26259;50.214;18.620;2023-05-02T01:56:43;8.00;99.90
22678;DHT22;26259;50.214;18.620;2023-05-02T01:59:16;8.00;99.90
22678;DHT22;26259;50.214;18.620;2023-05-02T02:01:43;8.10;99.90
22678;DHT22;26259;50.214;18.620;2023-05-02T02:04:12;8.10;99.90
22678;DHT22;26259;50.214;18.620;2023-05-02T02:06:38;8.20;99.90
22678;DHT22;26259;50.214;18.620;2023-05-02T02:09:05;8.20;99.90
22678;DHT22;26259;50.214;18.620;2023-05-02T02:11:36;8.20;99.90
22678;DHT22;26259;50.214;18.620;2023-05-02T02:14:05;8.30;99.90
22678;DHT22;26259;50.214;18.620;2023-05-02T02:16:33;8.40;99.90
22678;DHT22;26259;50.214;18.620;2023-05-02T02:19:06;8.40;99.90
22678;DHT22;26259;50.214;18.620;2023-05-02T02:21:33;8.40;99.90
22678;DHT22;26259;50.214;18.620;2023-05-02T02:24:02;8.50;99.90
22678;DHT22;26259;50.214;18.620;2023-05-02T02:26:28;8.50;99.90
22678;DHT22;26259;50.214;18.620;2023-05-02T02:28:54;8.60;99.90
22678;DHT22;26259;50.214;18.620;2023-05-02T02:31:20;8.60;99.90
22678;DHT22;26259;50.214;18.620;2023-05-02T02:33:46;8.60;99.90
22678;DHT22;26259;50.214;18.620;2023-05-02T02:36:17;8.70;99.90
22678;DHT22;26259;50.214;18.620;2023-05-02T02:38:51;8.80;99.90
22678;DHT22;26259;50.214;18.620;2023-05-02T02:41:27;8.90;99.90
22678;DHT22;26259;50.214;18.620;2023-05-02T02:47:05;9.00;99.90
22678;DHT22;26259;50.214;18.620;2023-05-02T02:52:39;9.20;99.90
22678;DHT22;26259;50.214;18.620;2023-05-02T02:55:16;9.20;99.90
22678;DHT22;26259;50.214;18.620;2023-05-02T02:57:54;9.20;99.90
22678;DHT22;26259;50.214;18.620;2023-05-02T03:00:25;9.20;99.90
22678;DHT22;26259;50.214;18.620;2023-05-02T03:02:53;9.30;99.90
22678;DHT22;26259;50.214;18.620;2023-05-02T03:05:20;9.30;99.90
22678;DHT22;26259;50.214;18.620;2023-05-02T03:07:45;9.30;99.90
22678;DHT22;26259;50.214;18.620;2023-05-02T03:10:11;9.20;99.90
22678;DHT22;26259;50.214;18.620;2023-05-02T03:12:37;9.20;99.90
22678;DHT22;26259;50.214;18.620;2023-05-02T03:17:57;9.20;99.90
22678;DHT22;26259;50.214;18.620;2023-05-02T03:20:22;9.10;99.90
22678;DHT22;26259;50.214;18.620;2023-05-02T03:22:48;9.10;99.90
22678;DHT22;26259;50.214;18.620;2023-05-02T03:25:13;9.10;99.90
22678;DHT22;26259;50.214;18.620;2023-05-02T03:27:39;9.10;99.90
22678;DHT22;26259;50.214;18.620;2023-05-02T03:30:05;9.00;99.90
22678;DHT22;26259;50.214;18.620;2023-05-02T03:32:31;9.00;99.90
22678;DHT22;26259;50.214;18.620;2023-05-02T03:34:56;9.00;99.90
22678;DHT22;26259;50.214;18.620;2023-05-02T03:37:23;9.00;99.90
22678;DHT22;26259;50.214;18.620;2023-05-02T03:39:49;9.00;99.90
22678;DHT22;26259;50.214;18.620;2023-05-02T03:42:15;9.00;99.90
22678;DHT22;26259;50.214;18.620;2023-05-02T03:44:40;9.00;99.90
22678;DHT22;26259;50.214;18.620;2023-05-02T03:47:06;9.00;99.90
22678;DHT22;26259;50.214;18.620;2023-05-02T03:49:33;9.00;99.90
22678;DHT22;26259;50.214;18.620;2023-05-02T03:51:59;9.00;99.90
22678;DHT22;26259;50.214;18.620;2023-05-02T03:54:25;9.00;99.90
22678;DHT22;26259;50.214;18.620;2023-05-02T03:56:53;9.10;99.90
22678;DHT22;26259;50.214;18.620;2023-05-02T03:59:19;9.10;99.90
22678;DHT22;26259;50.214;18.620;2023-05-02T04:01:47;9.20;99.90
22678;DHT22;26259;50.214;18.620;2023-05-02T04:04:13;9.20;99.90
22678;DHT22;26259;50.214;18.620;2023-05-02T04:06:38;9.20;99.90
22678;DHT22;26259;50.214;18.620;2023-05-02T04:09:04;9.30;99.90
22678;DHT22;26259;50.214;18.620;2023-05-02T04:11:30;9.30;99.90
22678;DHT22;26259;50.214;18.620;2023-05-02T04:13:55;9.40;99.90
22678;DHT22;26259;50.214;18.620;2023-05-02T04:16:21;9.40;99.90
22678;DHT22;26259;50.214;18.620;2023-05-02T04:18:47;9.50;99.90
22678;DHT22;26259;50.214;18.620;2023-05-02T04:21:12;9.60;99.90
22678;DHT22;26259;50.214;18.620;2023-05-02T04:23:38;9.70;99.90
22678;DHT22;26259;50.214;18.620;2023-05-02T04:26:04;9.90;99.90
22678;DHT22;26259;50.214;18.620;2023-05-02T04:28:30;10.00;99.90
22678;DHT22;26259;50.214;18.620;2023-05-02T04:30:56;10.20;99.90
22678;DHT22;26259;50.214;18.620;2023-05-02T04:33:22;10.30;99.90
22678;DHT22;26259;50.214;18.620;2023-05-02T04:35:48;10.50;99.90
22678;DHT22;26259;50.214;18.620;2023-05-02T04:38:14;10.80;99.90
22678;DHT22;26259;50.214;18.620;2023-05-02T04:40:40;11.00;99.90
22678;DHT22;26259;50.214;18.620;2023-05-02T04:43:05;11.30;99.90
22678;DHT22;26259;50.214;18.620;2023-05-02T04:45:33;11.60;99.90
22678;DHT22;26259;50.214;18.620;2023-05-02T04:47:58;11.90;99.90
22678;DHT22;26259;50.214;18.620;2023-05-02T04:50:24;12.10;99.90
22678;DHT22;26259;50.214;18.620;2023-05-02T04:52:52;12.30;99.90
22678;DHT22;26259;50.214;18.620;2023-05-02T04:55:18;12.40;99.90
22678;DHT22;26259;50.214;18.620;2023-05-02T04:57:43;12.50;99.90
22678;DHT22;26259;50.214;18.620;2023-05-02T05:00:10;12.60;99.90
22678;DHT22;26259;50.214;18.620;2023-05-02T05:02:35;12.80;99.90
22678;DHT22;26259;50.214;18.620;2023-05-02T05:05:01;12.90;99.90
22678;DHT22;26259;50.214;18.620;2023-05-02T05:07:26;13.10;99.90
22678;DHT22;26259;50.214;18.620;2023-05-02T05:09:52;13.30;99.90
22678;DHT22;26259;50.214;18.620;2023-05-02T05:12:18;13.40;99.90
22678;DHT22;26259;50.214;18.620;2023-05-02T05:14:44;13.60;99.90
22678;DHT22;26259;50.214;18.620;2023-05-02T05:17:09;13.80;99.90
22678;DHT22;26259;50.214;18.620;2023-05-02T05:19:35;14.00;99.90
22678;DHT22;26259;50.214;18.620;2023-05-02T05:22:01;14.10;99.90
22678;DHT22;26259;50.214;18.620;2023-05-02T05:24:26;14.20;99.90
22678;DHT22;26259;50.214;18.620;2023-05-02T05:26:52;14.40;99.90
22678;DHT22;26259;50.214;18.620;2023-05-02T05:29:17;14.60;99.90
22678;DHT22;26259;50.214;18.620;2023-05-02T05:31:43;14.70;99.90
22678;DHT22;26259;50.214;18.620;2023-05-02T05:34:09;14.80;99.90
22678;DHT22;26259;50.214;18.620;2023-05-02T05:36:34;14.90;99.90
22678;DHT22;26259;50.214;18.620;2023-05-02T05:39:01;15.10;99.90
22678;DHT22;26259;50.214;18.620;2023-05-02T05:41:27;15.20;99.90
22678;DHT22;26259;50.214;18.620;2023-05-02T05:43:53;15.30;99.90
22678;DHT22;26259;50.214;18.620;2023-05-02T05:46:18;15.40;99.90
22678;DHT22;26259;50.214;18.620;2023-05-02T05:48:44;15.60;99.90
22678;DHT22;26259;50.214;18.620;2023-05-02T05:51:09;15.70;99.90
22678;DHT22;26259;50.214;18.620;2023-05-02T05:53:35;15.80;99.90
22678;DHT22;26259;50.214;18.620;2023-05-02T05:56:11;16.00;99.90
22678;DHT22;26259;50.214;18.620;2023-05-02T05:58:38;16.10;99.90
22678;DHT22;26259;50.214;18.620;2023-05-02T06:01:04;16.20;99.90
22678;DHT22;26259;50.214;18.620;2023-05-02T06:03:29;16.40;99.90
22678;DHT22;26259;50.214;18.620;2023-05-02T06:05:55;16.50;99.90
22678;DHT22;26259;50.214;18.620;2023-05-02T06:08:20;16.70;99.90
22678;DHT22;26259;50.214;18.620;2023-05-02T06:10:46;16.80;99.90
22678;DHT22;26259;50.214;18.620;2023-05-02T06:13:12;17.00;99.90
22678;DHT22;26259;50.214;18.620;2023-05-02T06:15:37;17.10;99.90
22678;DHT22;26259;50.214;18.620;2023-05-02T06:18:03;17.20;99.90
22678;DHT22;26259;50.214;18.620;2023-05-02T06:20:28;17.20;99.90
22678;DHT22;26259;50.214;18.620;2023-05-02T06:22:54;17.30;99.90
22678;DHT22;26259;50.214;18.620;2023-05-02T06:25:20;17.30;99.90
22678;DHT22;26259;50.214;18.620;2023-05-02T06:27:45;17.40;99.90
22678;DHT22;26259;50.214;18.620;2023-05-02T06:30:11;17.40;99.90
22678;DHT22;26259;50.214;18.620;2023-05-02T06:32:37;17.40;98.80
22678;DHT22;26259;50.214;18.620;2023-05-02T06:35:03;17.40;97.20
22678;DHT22;26259;50.214;18.620;2023-05-02T06:37:35;17.30;99.60
22678;DHT22;26259;50.214;18.620;2023-05-02T06:40:01;17.40;98.70
22678;DHT22;26259;50.214;18.620;2023-05-02T06:42:27;17.50;99.90
22678;DHT22;26259;50.214;18.620;2023-05-02T06:44:52;17.60;99.90
22678;DHT22;26259;50.214;18.620;2023-05-02T06:47:18;17.70;96.80
22678;DHT22;26259;50.214;18.620;2023-05-02T06:49:47;17.70;95.50
22678;DHT22;26259;50.214;18.620;2023-05-02T06:52:12;17.80;95.70
22678;DHT22;26259;50.214;18.620;2023-05-02T06:54:38;17.90;90.40
22678;DHT22;26259;50.214;18.620;2023-05-02T06:57:03;17.90;92.50
22678;DHT22;26259;50.214;18.620;2023-05-02T06:59:30;18.00;95.90
22678;DHT22;26259;50.214;18.620;2023-05-02T07:01:55;18.10;94.70
22678;DHT22;26259;50.214;18.620;2023-05-02T07:04:21;18.20;91.40
22678;DHT22;26259;50.214;18.620;2023-05-02T07:06:46;18.20;86.90
22678;DHT22;26259;50.214;18.620;2023-05-02T07:09:12;18.10;90.60
22678;DHT22;26259;50.214;18.620;2023-05-02T07:11:37;18.20;90.90
22678;DHT22;26259;50.214;18.620;2023-05-02T07:14:03;18.10;90.20
22678;DHT22;26259;50.214;18.620;2023-05-02T07:16:29;18.20;93.60
22678;DHT22;26259;50.214;18.620;2023-05-02T07:18:54;18.30;94.50
22678;DHT22;26259;50.214;18.620;2023-05-02T07:21:20;18.50;92.80
22678;DHT22;26259;50.214;18.620;2023-05-02T07:23:45;18.50;89.60
22678;DHT22;26259;50.214;18.620;2023-05-02T07:26:11;18.30;92.30
22678;DHT22;26259;50.214;18.620;2023-05-02T07:28:37;18.40;89.70
22678;DHT22;26259;50.214;18.620;2023-05-02T07:31:03;18.60;90.30
22678;DHT22;26259;50.214;18.620;2023-05-02T07:33:28;18.70;93.20
22678;DHT22;26259;50.214;18.620;2023-05-02T07:35:55;18.80;88.70
22678;DHT22;26259;50.214;18.620;2023-05-02T07:38:20;19.00;91.80
22678;DHT22;26259;50.214;18.620;2023-05-02T07:40:46;19.30;91.40
22678;DHT22;26259;50.214;18.620;2023-05-02T07:43:13;19.40;93.40
22678;DHT22;26259;50.214;18.620;2023-05-02T07:45:40;19.80;93.20
22678;DHT22;26259;50.214;18.620;2023-05-02T07:48:05;19.90;82.70
22678;DHT22;26259;50.214;18.620;2023-05-02T07:50:31;19.90;84.20
22678;DHT22;26259;50.214;18.620;2023-05-02T07:52:57;19.80;79.50
22678;DHT22;26259;50.214;18.620;2023-05-02T07:55:22;19.90;80.80
22678;DHT22;26259;50.214;18.620;2023-05-02T07:57:51;19.90;89.00
22678;DHT22;26259;50.214;18.620;2023-05-02T08:00:16;20.20;73.60
22678;DHT22;26259;50.214;18.620;2023-05-02T08:02:42;20.00;92.80
22678;DHT22;26259;50.214;18.620;2023-05-02T08:05:09;20.10;77.70
22678;DHT22;26259;50.214;18.620;2023-05-02T08:07:35;19.90;82.70
22678;DHT22;26259;50.214;18.620;2023-05-02T08:10:00;19.80;85.00
22678;DHT22;26259;50.214;18.620;2023-05-02T08:12:26;19.60;90.70
22678;DHT22;26259;50.214;18.620;2023-05-02T08:14:52;19.60;94.20
22678;DHT22;26259;50.214;18.620;2023-05-02T08:17:18;19.70;97.20
22678;DHT22;26259;50.214;18.620;2023-05-02T08:19:43;19.70;95.60
22678;DHT22;26259;50.214;18.620;2023-05-02T08:22:09;19.80;92.90
22678;DHT22;26259;50.214;18.620;2023-05-02T08:24:35;19.90;99.90
22678;DHT22;26259;50.214;18.620;2023-05-02T08:27:00;20.00;97.70
22678;DHT22;26259;50.214;18.620;2023-05-02T08:29:28;20.20;94.70
22678;DHT22;26259;50.214;18.620;2023-05-02T08:31:54;20.30;97.00
22678;DHT22;26259;50.214;18.620;2023-05-02T08:34:20;20.40;90.90
22678;DHT22;26259;50.214;18.620;2023-05-02T08:36:46;20.40;95.50
22678;DHT22;26259;50.214;18.620;2023-05-02T08:39:12;20.60;91.60
22678;DHT22;26259;50.214;18.620;2023-05-02T08:41:37;20.70;92.00
22678;DHT22;26259;50.214;18.620;2023-05-02T08:44:05;20.70;93.00
22678;DHT22;26259;50.214;18.620;2023-05-02T08:46:31;20.70;96.00
22678;DHT22;26259;50.214;18.620;2023-05-02T08:48:59;20.70;94.80
22678;DHT22;26259;50.214;18.620;2023-05-02T08:51:26;20.70;93.70
22678;DHT22;26259;50.214;18.620;2023-05-02T08:53:53;20.60;92.50
22678;DHT22;26259;50.214;18.620;2023-05-02T08:56:19;20.60;92.10
22678;DHT22;26259;50.214;18.620;2023-05-02T08:58:45;20.50;91.00
22678;DHT22;26259;50.214;18.620;2023-05-02T09:01:18;20.20;93.60
22678;DHT22;26259;50.214;18.620;2023-05-02T09:03:47;20.30;95.50
22678;DHT22;26259;50.214;18.620;2023-05-02T09:06:17;20.40;95.80
22678;DHT22;26259;50.214;18.620;2023-05-02T09:08:45;20.40;92.00
22678;DHT22;26259;50.214;18.620;2023-05-02T09:11:13;20.60;91.50
22678;DHT22;26259;50.214;18.620;2023-05-02T09:13:44;20.70;90.00
22678;DHT22;26259;50.214;18.620;2023-05-02T09:16:16;20.80;92.60
22678;DHT22;26259;50.214;18.620;2023-05-02T09:21:15;20.60;90.00
22678;DHT22;26259;50.214;18.620;2023-05-02T09:23:46;20.50;90.30
22678;DHT22;26259;50.214;18.620;2023-05-02T09:28:52;21.00;90.50
22678;DHT22;26259;50.214;18.620;2023-05-02T09:31:35;21.30;91.40
22678;DHT22;26259;50.214;18.620;2023-05-02T09:34:11;21.60;83.50
22678;DHT22;26259;50.214;18.620;2023-05-02T09:36:42;21.60;83.00
22678;DHT22;26259;50.214;18.620;2023-05-02T09:39:09;21.30;80.10
22678;DHT22;26259;50.214;18.620;2023-05-02T09:41:42;21.20;86.30
22678;DHT22;26259;50.214;18.620;2023-05-02T09:44:10;21.30;82.70
22678;DHT22;26259;50.214;18.620;2023-05-02T09:46:44;21.50;91.80
22678;DHT22;26259;50.214;18.620;2023-05-02T09:49:10;21.80;89.80
22678;DHT22;26259;50.214;18.620;2023-05-02T09:51:36;22.00;79.20
22678;DHT22;26259;50.214;18.620;2023-05-02T09:54:02;22.20;77.10
22678;DHT22;26259;50.214;18.620;2023-05-02T09:56:28;22.00;77.70
22678;DHT22;26259;50.214;18.620;2023-05-02T09:59:14;22.00;74.60
22678;DHT22;26259;50.214;18.620;2023-05-02T10:01:40;21.80;75.00
22678;DHT22;26259;50.214;18.620;2023-05-02T10:04:13;21.70;75.20
22678;DHT22;26259;50.214;18.620;2023-05-02T10:06:42;21.40;79.40
22678;DHT22;26259;50.214;18.620;2023-05-02T10:09:09;21.30;80.70
22678;DHT22;26259;50.214;18.620;2023-05-02T10:11:38;21.20;83.30
22678;DHT22;26259;50.214;18.620;2023-05-02T10:14:07;21.00;86.80
22678;DHT22;26259;50.214;18.620;2023-05-02T10:16:35;21.00;87.40
22678;DHT22;26259;50.214;18.620;2023-05-02T10:19:08;21.10;86.10
22678;DHT22;26259;50.214;18.620;2023-05-02T10:21:35;21.30;90.20
22678;DHT22;26259;50.214;18.620;2023-05-02T10:24:02;21.40;88.30
22678;DHT22;26259;50.214;18.620;2023-05-02T10:26:28;21.40;90.10
22678;DHT22;26259;50.214;18.620;2023-05-02T10:28:57;21.30;88.90
22678;DHT22;26259;50.214;18.620;2023-05-02T10:31:23;21.20;90.70
22678;DHT22;26259;50.214;18.620;2023-05-02T10:33:54;21.20;92.00
22678;DHT22;26259;50.214;18.620;2023-05-02T10:36:21;21.00;93.10
22678;DHT22;26259;50.214;18.620;2023-05-02T10:38:48;20.80;91.70
22678;DHT22;26259;50.214;18.620;2023-05-02T10:41:19;20.70;91.90
22678;DHT22;26259;50.214;18.620;2023-05-02T10:43:47;20.30;94.90
22678;DHT22;26259;50.214;18.620;2023-05-02T10:46:36;19.70;98.30
22678;DHT22;26259;50.214;18.620;2023-05-02T10:49:04;19.30;99.90
22678;DHT22;26259;50.214;18.620;2023-05-02T10:51:31;19.30;99.90
22678;DHT22;26259;50.214;18.620;2023-05-02T10:54:21;19.40;99.90
22678;DHT22;26259;50.214;18.620;2023-05-02T10:59:36;19.40;99.90
22678;DHT22;26259;50.214;18.620;2023-05-02T11:02:03;19.60;99.90
22678;DHT22;26259;50.214;18.620;2023-05-02T11:04:58;19.60;99.90
22678;DHT22;26259;50.214;18.620;2023-05-02T11:07:24;19.70;99.90
22678;DHT22;26259;50.214;18.620;2023-05-02T11:09:50;19.60;99.90
22678;DHT22;26259;50.214;18.620;2023-05-02T11:12:47;19.70;99.90
22678;DHT22;26259;50.214;18.620;2023-05-02T11:20:31;19.90;99.90
22678;DHT22;26259;50.214;18.620;2023-05-02T11:25:41;19.60;99.90
22678;DHT22;26259;50.214;18.620;2023-05-02T11:33:57;19.50;99.90
22678;DHT22;26259;50.214;18.620;2023-05-02T11:36:30;19.40;99.90
22678;DHT22;26259;50.214;18.620;2023-05-02T11:38:58;19.60;99.90
22678;DHT22;26259;50.214;18.620;2023-05-02T11:41:38;19.60;99.90
22678;DHT22;26259;50.214;18.620;2023-05-02T11:44:04;19.70;99.90
22678;DHT22;26259;50.214;18.620;2023-05-02T11:46:30;19.70;99.90
22678;DHT22;26259;50.214;18.620;2023-05-02T11:48:55;19.40;99.90
22678;DHT22;26259;50.214;18.620;2023-05-02T11:51:22;19.30;99.90
22678;DHT22;26259;50.214;18.620;2023-05-02T11:53:47;19.30;99.90
22678;DHT22;26259;50.214;18.620;2023-05-02T11:56:14;19.30;99.90
22678;DHT22;26259;50.214;18.620;2023-05-02T11:58:40;19.40;99.90
22678;DHT22;26259;50.214;18.620;2023-05-02T12:01:12;19.40;99.90
22678;DHT22;26259;50.214;18.620;2023-05-02T12:03:38;19.20;99.90
22678;DHT22;26259;50.214;18.620;2023-05-02T12:06:12;19.00;99.90
22678;DHT22;26259;50.214;18.620;2023-05-02T12:08:38;19.10;99.90
22678;DHT22;26259;50.214;18.620;2023-05-02T12:11:04;18.80;99.90
22678;DHT22;26259;50.214;18.620;2023-05-02T12:13:31;18.80;99.90
22678;DHT22;26259;50.214;18.620;2023-05-02T12:15:57;18.90;99.90
22678;DHT22;26259;50.214;18.620;2023-05-02T12:18:24;19.10;99.90
22678;DHT22;26259;50.214;18.620;2023-05-02T12:20:52;19.20;99.90
22678;DHT22;26259;50.214;18.620;2023-05-02T12:23:23;19.00;99.90
22678;DHT22;26259;50.214;18.620;2023-05-02T12:25:50;18.90;99.90
22678;DHT22;26259;50.214;18.620;2023-05-02T12:28:17;18.80;99.90
22678;DHT22;26259;50.214;18.620;2023-05-02T12:30:46;18.70;99.90
22678;DHT22;26259;50.214;18.620;2023-05-02T12:33:12;18.50;99.90
22678;DHT22;26259;50.214;18.620;2023-05-02T12:35:38;18.30;99.90
22678;DHT22;26259;50.214;18.620;2023-05-02T12:40:33;18.30;99.90
22678;DHT22;26259;50.214;18.620;2023-05-02T12:43:02;18.10;99.90
22678;DHT22;26259;50.214;18.620;2023-05-02T12:45:34;18.10;99.90
22678;DHT22;26259;50.214;18.620;2023-05-02T12:48:20;18.00;99.90
22678;DHT22;26259;50.214;18.620;2023-05-02T12:50:46;18.20;99.90
22678;DHT22;26259;50.214;18.620;2023-05-02T12:53:12;18.20;99.90
22678;DHT22;26259;50.214;18.620;2023-05-02T12:55:37;18.20;99.90
22678;DHT22;26259;50.214;18.620;2023-05-02T12:58:08;18.10;99.90
22678;DHT22;26259;50.214;18.620;2023-05-02T13:00:38;18.10;99.90
22678;DHT22;26259;50.214;18.620;2023-05-02T13:03:05;18.00;99.90
22678;DHT22;26259;50.214;18.620;2023-05-02T13:05:31;18.10;99.90
22678;DHT22;26259;50.214;18.620;2023-05-02T13:07:57;18.10;99.90
22678;DHT22;26259;50.214;18.620;2023-05-02T13:10:23;18.20;99.90
22678;DHT22;26259;50.214;18.620;2023-05-02T13:12:51;18.30;99.90
22678;DHT22;26259;50.214;18.620;2023-05-02T13:15:17;18.40;99.90
22678;DHT22;26259;50.214;18.620;2023-05-02T13:17:43;18.50;99.90
22678;DHT22;26259;50.214;18.620;2023-05-02T13:20:09;18.20;99.90
22678;DHT22;26259;50.214;18.620;2023-05-02T13:22:35;18.40;99.90
22678;DHT22;26259;50.214;18.620;2023-05-02T13:25:05;18.50;99.90
22678;DHT22;26259;50.214;18.620;2023-05-02T13:27:31;18.70;99.90
22678;DHT22;26259;50.214;18.620;2023-05-02T13:29:58;19.00;99.90
22678;DHT22;26259;50.214;18.620;2023-05-02T13:32:24;19.00;99.90
22678;DHT22;26259;50.214;18.620;2023-05-02T13:34:50;19.00;99.90
22678;DHT22;26259;50.214;18.620;2023-05-02T13:37:15;19.00;99.90
22678;DHT22;26259;50.214;18.620;2023-05-02T13:39:41;19.00;98.20
22678;DHT22;26259;50.214;18.620;2023-05-02T13:42:06;18.80;94.60
22678;DHT22;26259;50.214;18.620;2023-05-02T13:44:32;18.70;94.50
22678;DHT22;26259;50.214;18.620;2023-05-02T13:46:57;18.50;93.20
22678;DHT22;26259;50.214;18.620;2023-05-02T13:49:23;18.40;95.60
22678;DHT22;26259;50.214;18.620;2023-05-02T13:51:49;18.40;94.50
22678;DHT22;26259;50.214;18.620;2023-05-02T13:54:15;18.40;94.50
22678;DHT22;26259;50.214;18.620;2023-05-02T13:56:41;18.30;93.80
22678;DHT22;26259;50.214;18.620;2023-05-02T13:59:08;18.20;94.80
22678;DHT22;26259;50.214;18.620;2023-05-02T14:01:33;18.30;94.80
22678;DHT22;26259;50.214;18.620;2023-05-02T14:03:59;18.30;91.20
22678;DHT22;26259;50.214;18.620;2023-05-02T14:06:25;18.10;93.00
22678;DHT22;26259;50.214;18.620;2023-05-02T14:08:50;18.00;92.90
22678;DHT22;26259;50.214;18.620;2023-05-02T14:11:16;17.90;94.70
22678;DHT22;26259;50.214;18.620;2023-05-02T14:13:42;17.80;93.40
22678;DHT22;26259;50.214;18.620;2023-05-02T14:16:08;17.80;94.30
22678;DHT22;26259;50.214;18.620;2023-05-02T14:18:34;17.60;94.50
22678;DHT22;26259;50.214;18.620;2023-05-02T14:20:59;17.60;93.30
22678;DHT22;26259;50.214;18.620;2023-05-02T14:23:25;17.60;92.80
22678;DHT22;26259;50.214;18.620;2023-05-02T14:25:54;17.60;92.60
22678;DHT22;26259;50.214;18.620;2023-05-02T14:28:20;17.40;91.70
22678;DHT22;26259;50.214;18.620;2023-05-02T14:30:49;17.30;93.80
22678;DHT22;26259;50.214;18.620;2023-05-02T14:33:15;17.30;95.90
22678;DHT22;26259;50.214;18.620;2023-05-02T14:35:41;17.30;96.90
22678;DHT22;26259;50.214;18.620;2023-05-02T14:38:06;17.40;93.80
22678;DHT22;26259;50.214;18.620;2023-05-02T14:40:32;17.40;94.10
22678;DHT22;26259;50.214;18.620;2023-05-02T14:42:58;17.30;95.30
22678;DHT22;26259;50.214;18.620;2023-05-02T14:45:23;17.40;95.70
22678;DHT22;26259;50.214;18.620;2023-05-02T14:47:49;17.30;92.30
22678;DHT22;26259;50.214;18.620;2023-05-02T14:50:15;17.10;92.70
22678;DHT22;26259;50.214;18.620;2023-05-02T14:52:41;17.00;91.50
22678;DHT22;26259;50.214;18.620;2023-05-02T14:55:07;16.90;93.80
22678;DHT22;26259;50.214;18.620;2023-05-02T14:57:33;16.80;92.80
22678;DHT22;26259;50.214;18.620;2023-05-02T14:59:59;16.70;93.50
22678;DHT22;26259;50.214;18.620;2023-05-02T15:02:25;16.70;95.10
22678;DHT22;26259;50.214;18.620;2023-05-02T15:04:51;16.50;97.10
22678;DHT22;26259;50.214;18.620;2023-05-02T15:07:16;16.50;98.30
22678;DHT22;26259;50.214;18.620;2023-05-02T15:09:42;16.40;99.50
22678;DHT22;26259;50.214;18.620;2023-05-02T15:12:07;16.30;99.90
22678;DHT22;26259;50.214;18.620;2023-05-02T15:14:33;16.30;99.90
22678;DHT22;26259;50.214;18.620;2023-05-02T15:16:58;16.30;99.90
22678;DHT22;26259;50.214;18.620;2023-05-02T15:19:24;16.30;99.90
22678;DHT22;26259;50.214;18.620;2023-05-02T15:21:50;16.20;99.90
22678;DHT22;26259;50.214;18.620;2023-05-02T15:24:19;16.20;99.90
22678;DHT22;26259;50.214;18.620;2023-05-02T15:26:44;16.10;99.50
22678;DHT22;26259;50.214;18.620;2023-05-02T15:29:10;16.00;99.90
22678;DHT22;26259;50.214;18.620;2023-05-02T15:31:36;15.90;99.90
22678;DHT22;26259;50.214;18.620;2023-05-02T15:34:02;15.90;99.90
22678;DHT22;26259;50.214;18.620;2023-05-02T15:36:28;15.90;99.90
22678;DHT22;26259;50.214;18.620;2023-05-02T15:38:55;15.80;99.90
22678;DHT22;26259;50.214;18.620;2023-05-02T15:41:21;15.70;99.90
22678;DHT22;26259;50.214;18.620;2023-05-02T15:43:48;15.70;99.90
22678;DHT22;26259;50.214;18.620;2023-05-02T15:46:14;15.60;99.90
22678;DHT22;26259;50.214;18.620;2023-05-02T15:48:40;15.40;99.90
22678;DHT22;26259;50.214;18.620;2023-05-02T15:51:05;15.20;99.90
22678;DHT22;26259;50.214;18.620;2023-05-02T15:53:33;14.90;99.90
22678;DHT22;26259;50.214;18.620;2023-05-02T15:55:59;14.60;99.90
22678;DHT22;26259;50.214;18.620;2023-05-02T15:58:24;14.40;99.90
22678;DHT22;26259;50.214;18.620;2023-05-02T16:00:50;14.40;99.90
22678;DHT22;26259;50.214;18.620;2023-05-02T16:03:16;14.40;99.90